createdAt,value
2022-12-01T00:01:29.729Z,9.88
2022-12-01T00:03:57.857Z,10.40
2022-12-01T00:06:26.003Z,12.35
2022-12-01T00:09:18.024Z,11.00
2022-12-01T00:11:47.827Z,10.75
2022-12-01T00:14:16.461Z,11.57
2022-12-01T00:16:45.022Z,12.15
2022-12-01T00:19:13.697Z,10.48
2022-12-01T00:21:42.050Z,11.35
2022-12-01T00:24:12.758Z,10.35
2022-12-01T00:26:41.293Z,11.15
2022-12-01T00:29:09.930Z,11.48
2022-12-01T00:31:38.138Z,10.45
2022-12-01T00:34:10.974Z,10.93
2022-12-01T00:36:39.961Z,10.20
2022-12-01T00:39:08.243Z,11.57
2022-12-01T00:41:37.826Z,11.38
2022-12-01T00:44:06.607Z,10.07
2022-12-01T00:46:34.915Z,9.85
2022-12-01T00:49:03.144Z,9.93
2022-12-01T00:51:31.428Z,10.45
2022-12-01T00:53:59.676Z,9.77
2022-12-01T00:56:27.782Z,12.20
2022-12-01T00:58:57.286Z,10.57
2022-12-01T01:01:25.536Z,11.27
2022-12-01T01:03:54.306Z,10.43
2022-12-01T01:06:22.547Z,9.60
2022-12-01T01:08:50.986Z,11.77
2022-12-01T01:11:19.120Z,14.98
2022-12-01T01:13:47.293Z,11.02
2022-12-01T01:16:20.086Z,10.77
2022-12-01T01:21:19.247Z,12.98
2022-12-01T01:23:47.644Z,10.60
2022-12-01T01:26:19.659Z,11.25
2022-12-01T01:28:48.664Z,10.85
2022-12-01T01:31:20.550Z,10.40
2022-12-01T01:33:49.344Z,10.55
2022-12-01T01:36:18.229Z,12.45
2022-12-01T01:38:46.837Z,9.95
2022-12-01T01:41:15.232Z,10.35
2022-12-01T01:43:46.383Z,10.63
2022-12-01T01:46:18.199Z,10.32
2022-12-01T01:48:50.832Z,10.68
2022-12-01T01:51:23.577Z,10.98
2022-12-01T01:53:54.955Z,10.75
2022-12-01T01:56:23.693Z,10.13
2022-12-01T01:58:54.019Z,10.93
2022-12-01T02:01:23.537Z,10.27
2022-12-01T02:03:54.899Z,9.15
2022-12-01T02:06:24.882Z,9.85
2022-12-01T02:08:53.286Z,9.35
2022-12-01T02:11:53.334Z,10.25
2022-12-01T02:14:42.569Z,9.23
2022-12-01T02:17:24.066Z,10.60
2022-12-01T02:20:21.854Z,9.20
2022-12-01T02:23:02.955Z,9.40
2022-12-01T02:25:42.458Z,9.57
2022-12-01T02:28:45.523Z,10.48
2022-12-01T02:31:18.852Z,9.35
2022-12-01T02:36:29.633Z,9.15
2022-12-01T02:39:02.678Z,9.65
2022-12-01T02:41:38.343Z,10.05
2022-12-01T02:44:12.196Z,9.88
2022-12-01T02:46:45.755Z,9.98
2022-12-01T02:49:18.052Z,9.48
2022-12-01T02:51:47.110Z,9.70
2022-12-01T02:54:16.685Z,8.35
2022-12-01T02:56:46.120Z,9.30
2022-12-01T02:59:16.547Z,11.38
2022-12-01T03:01:57.156Z,9.43
2022-12-01T03:04:52.561Z,9.00
2022-12-01T03:07:41.748Z,9.75
2022-12-01T03:10:18.011Z,10.30
2022-12-01T03:12:58.707Z,9.27
2022-12-01T03:15:35.869Z,9.30
2022-12-01T03:18:12.401Z,9.88
2022-12-01T03:20:47.351Z,11.00
2022-12-01T03:23:19.242Z,9.10
2022-12-01T03:25:50.580Z,9.05
2022-12-01T03:28:22.624Z,8.95
2022-12-01T03:30:57.096Z,10.95
2022-12-01T03:33:30.965Z,10.40
2022-12-01T03:36:04.390Z,10.10
2022-12-01T03:38:36.343Z,8.95
2022-12-01T03:41:08.681Z,9.43
2022-12-01T03:43:42.166Z,9.45
2022-12-01T03:46:15.132Z,9.93
2022-12-01T03:48:45.155Z,9.77
2022-12-01T03:51:17.242Z,9.82
2022-12-01T03:53:53.888Z,10.52
2022-12-01T03:56:27.366Z,10.02
2022-12-01T03:58:58.766Z,10.13
2022-12-01T04:01:32.717Z,9.60
2022-12-01T04:04:07.741Z,9.02
2022-12-01T04:06:36.128Z,10.40
2022-12-01T04:09:04.827Z,10.77
2022-12-01T04:11:50.517Z,9.23
2022-12-01T04:14:18.872Z,10.48
2022-12-01T04:16:46.946Z,11.88
2022-12-01T04:19:16.856Z,10.55
2022-12-01T04:21:45.082Z,9.93
2022-12-01T04:24:13.359Z,11.15
2022-12-01T04:26:42.202Z,10.27
2022-12-01T04:29:13.399Z,9.70
2022-12-01T04:31:41.706Z,9.60
2022-12-01T04:34:11.500Z,9.65
2022-12-01T04:36:40.939Z,10.00
2022-12-01T04:39:09.048Z,10.32
2022-12-01T04:41:37.217Z,9.63
2022-12-01T04:44:05.673Z,10.13
2022-12-01T04:46:33.995Z,9.35
2022-12-01T04:49:02.133Z,10.10
2022-12-01T04:51:30.159Z,11.55
2022-12-01T04:53:59.679Z,10.10
2022-12-01T04:56:27.706Z,11.25
2022-12-01T04:58:56.146Z,9.90
2022-12-01T05:01:24.232Z,10.13
2022-12-01T05:03:52.448Z,9.45
2022-12-01T05:06:22.552Z,10.27
2022-12-01T05:08:51.810Z,10.90
2022-12-01T05:11:21.595Z,9.23
2022-12-01T05:13:50.641Z,10.75
2022-12-01T05:16:20.650Z,9.15
2022-12-01T05:18:50.404Z,10.90
2022-12-01T05:21:18.253Z,10.00
2022-12-01T05:23:46.570Z,9.95
2022-12-01T05:26:14.641Z,10.45
2022-12-01T05:28:44.137Z,10.25
2022-12-01T05:31:12.404Z,10.52
2022-12-01T05:33:40.509Z,10.07
2022-12-01T05:36:09.294Z,9.38
2022-12-01T05:38:37.427Z,10.70
2022-12-01T05:41:05.730Z,11.25
2022-12-01T05:43:33.867Z,12.32
2022-12-01T05:46:03.829Z,9.80
2022-12-01T05:48:32.025Z,10.32
2022-12-01T05:51:00.270Z,10.20
2022-12-01T05:53:28.310Z,10.25
2022-12-01T05:55:56.666Z,9.10
2022-12-01T05:58:24.774Z,10.23
2022-12-01T06:00:52.910Z,9.55
2022-12-01T06:03:22.633Z,11.68
2022-12-01T06:05:51.097Z,9.65
2022-12-01T06:08:19.276Z,9.38
2022-12-01T06:10:48.566Z,10.23
2022-12-01T06:13:17.057Z,10.50
2022-12-01T06:15:45.264Z,9.70
2022-12-01T06:18:13.403Z,9.90
2022-12-01T06:20:42.824Z,11.15
2022-12-01T06:23:10.883Z,13.30
2022-12-01T06:25:38.936Z,10.00
2022-12-01T06:28:07.029Z,11.45
2022-12-01T06:30:35.208Z,10.40
2022-12-01T06:33:03.302Z,10.35
2022-12-01T06:35:31.524Z,10.95
2022-12-01T06:38:01.427Z,10.55
2022-12-01T06:40:29.663Z,11.77
2022-12-01T06:43:00.712Z,11.45
2022-12-01T06:45:28.935Z,13.35
2022-12-01T06:47:57.585Z,11.38
2022-12-01T06:50:26.237Z,11.30
2022-12-01T06:52:59.481Z,10.73
2022-12-01T06:55:29.065Z,11.88
2022-12-01T06:58:00.910Z,12.00
2022-12-01T07:00:30.383Z,11.43
2022-12-01T07:02:59.111Z,12.18
2022-12-01T07:05:27.414Z,11.48
2022-12-01T07:07:59.451Z,11.82
2022-12-01T07:10:29.492Z,11.65
2022-12-01T07:12:58.164Z,12.30
2022-12-01T07:15:26.247Z,13.75
2022-12-01T07:17:54.350Z,12.20
2022-12-01T07:20:22.519Z,11.88
2022-12-01T07:22:50.603Z,13.02
2022-12-01T07:25:18.784Z,12.70
2022-12-01T07:27:49.265Z,13.13
2022-12-01T07:30:17.718Z,13.02
2022-12-01T07:32:46.207Z,11.55
2022-12-01T07:35:14.435Z,13.77
2022-12-01T07:37:42.778Z,12.55
2022-12-01T07:40:12.334Z,13.20
2022-12-01T07:42:42.622Z,13.68
2022-12-01T07:45:12.310Z,13.35
2022-12-01T07:47:40.371Z,13.23
2022-12-01T07:50:09.396Z,12.10
2022-12-01T07:52:37.666Z,12.15
2022-12-01T07:55:06.493Z,12.15
2022-12-01T07:57:34.670Z,12.68
2022-12-01T08:00:03.392Z,13.88
2022-12-01T08:02:36.469Z,12.57
2022-12-01T08:05:04.902Z,12.98
2022-12-01T08:07:33.128Z,13.30
2022-12-01T08:10:01.307Z,14.63
2022-12-01T08:12:29.579Z,13.75
2022-12-01T08:14:57.687Z,12.40
2022-12-01T08:17:25.856Z,13.38
2022-12-01T08:19:55.362Z,12.60
2022-12-01T08:22:23.434Z,12.82
2022-12-01T08:24:51.647Z,13.63
2022-12-01T08:27:19.806Z,11.98
2022-12-01T08:29:48.243Z,14.70
2022-12-01T08:32:17.983Z,13.02
2022-12-01T08:34:51.827Z,13.13
2022-12-01T08:37:22.765Z,13.00
2022-12-01T08:39:51.290Z,14.10
2022-12-01T08:42:19.471Z,12.20
2022-12-01T08:44:47.635Z,13.07
2022-12-01T08:47:18.751Z,13.93
2022-12-01T08:49:47.249Z,13.32
2022-12-01T08:52:18.354Z,12.90
2022-12-01T08:54:48.052Z,13.82
2022-12-01T08:57:16.394Z,12.45
2022-12-01T08:59:45.144Z,13.63
2022-12-01T09:02:16.693Z,12.85
2022-12-01T09:04:45.503Z,13.50
2022-12-01T09:07:15.163Z,14.10
2022-12-01T09:09:45.264Z,11.48
2022-12-01T09:12:15.767Z,16.60
2022-12-01T09:14:48.166Z,11.60
2022-12-01T09:17:17.388Z,12.90
2022-12-01T09:19:45.976Z,13.43
2022-12-01T09:22:14.555Z,14.80
2022-12-01T09:24:42.947Z,13.50
2022-12-01T09:27:11.686Z,13.88
2022-12-01T09:29:41.223Z,12.88
2022-12-01T09:32:09.481Z,14.18
2022-12-01T09:34:37.803Z,13.57
2022-12-01T09:37:06.971Z,12.95
2022-12-01T09:39:35.170Z,14.88
2022-12-01T09:42:09.212Z,14.65
2022-12-01T09:44:44.107Z,13.82
2022-12-01T09:47:19.270Z,13.52
2022-12-01T09:49:54.443Z,14.40
2022-12-01T09:52:25.195Z,13.85
2022-12-01T09:54:56.137Z,12.30
2022-12-01T09:57:31.199Z,14.00
2022-12-01T10:00:08.309Z,12.55
2022-12-01T10:02:41.148Z,12.75
2022-12-01T10:05:16.021Z,11.00
2022-12-01T10:07:48.606Z,14.40
2022-12-01T10:10:21.797Z,12.47
2022-12-01T10:12:50.004Z,13.60
2022-12-01T10:15:36.320Z,13.35
2022-12-01T10:18:17.402Z,13.13
2022-12-01T10:20:53.514Z,12.82
2022-12-01T10:23:45.291Z,12.52
2022-12-01T10:26:17.201Z,13.10
2022-12-01T10:29:06.372Z,12.95
2022-12-01T10:31:49.350Z,13.52
2022-12-01T10:34:20.086Z,11.45
2022-12-01T10:36:48.524Z,13.93
2022-12-01T10:39:20.760Z,12.38
2022-12-01T10:41:50.119Z,13.00
2022-12-01T10:44:22.422Z,13.38
2022-12-01T10:46:56.077Z,12.18
2022-12-01T10:49:36.744Z,11.38
2022-12-01T10:52:04.892Z,13.07
2022-12-01T10:54:36.291Z,14.40
2022-12-01T10:57:05.847Z,12.13
2022-12-01T10:59:39.083Z,11.73
2022-12-01T11:02:18.441Z,12.70
2022-12-01T11:04:52.944Z,13.90
2022-12-01T11:07:23.703Z,11.93
2022-12-01T11:10:09.346Z,13.38
2022-12-01T11:12:37.618Z,10.35
2022-12-01T11:15:07.163Z,10.93
2022-12-01T11:17:40.645Z,12.18
2022-12-01T11:20:34.168Z,11.82
2022-12-01T11:23:32.272Z,12.82
2022-12-01T11:26:04.955Z,12.05
2022-12-01T11:28:35.259Z,10.27
2022-12-01T11:31:06.673Z,13.15
2022-12-01T11:33:46.465Z,13.98
2022-12-01T11:36:24.268Z,11.63
2022-12-01T11:38:57.652Z,12.95
2022-12-01T11:41:30.337Z,11.75
2022-12-01T11:44:01.862Z,12.32
2022-12-01T11:46:35.605Z,11.47
2022-12-01T11:49:05.298Z,11.98
2022-12-01T11:51:37.687Z,11.80
2022-12-01T11:54:13.765Z,10.90
2022-12-01T11:56:45.427Z,10.52
2022-12-01T11:59:16.823Z,11.25
2022-12-01T12:02:14.906Z,9.82
2022-12-01T12:05:15.983Z,11.55
2022-12-01T12:07:55.498Z,10.32
2022-12-01T12:10:35.435Z,10.48
2022-12-01T12:13:27.489Z,12.05
2022-12-01T12:16:06.022Z,11.27
2022-12-01T12:18:49.408Z,12.10
2022-12-01T12:21:30.190Z,11.77
2022-12-01T12:24:35.865Z,11.15
2022-12-01T12:27:12.360Z,10.85
2022-12-01T12:29:54.448Z,10.52
2022-12-01T12:32:52.328Z,11.05
2022-12-01T12:35:32.240Z,9.43
2022-12-01T12:38:10.142Z,10.40
2022-12-01T12:40:43.621Z,11.05
2022-12-01T12:43:24.023Z,9.85
2022-12-01T12:46:02.155Z,11.25
2022-12-01T12:49:03.959Z,10.85
2022-12-01T12:51:36.999Z,10.38
2022-12-01T12:54:16.511Z,12.05
2022-12-01T12:56:49.677Z,10.63
2022-12-01T13:01:56.832Z,9.65
2022-12-01T13:04:33.430Z,10.98
2022-12-01T13:07:04.645Z,9.85
2022-12-01T13:09:37.302Z,9.60
2022-12-01T13:12:10.133Z,11.18
2022-12-01T13:14:42.175Z,9.23
2022-12-01T13:17:20.151Z,9.43
2022-12-01T13:19:49.190Z,10.45
2022-12-01T13:22:21.632Z,10.23
2022-12-01T13:24:51.836Z,12.50
2022-12-01T13:27:23.799Z,10.25
2022-12-01T13:29:54.425Z,9.27
2022-12-01T13:32:38.026Z,10.25
2022-12-01T13:37:39.048Z,9.30
2022-12-01T13:40:23.095Z,10.70
2022-12-01T13:42:58.499Z,8.70
2022-12-01T13:45:26.782Z,9.55
2022-12-01T13:47:57.012Z,8.98
2022-12-01T13:51:01.740Z,8.90
2022-12-01T13:53:32.846Z,9.93
2022-12-01T13:56:27.619Z,9.95
2022-12-01T13:58:56.162Z,9.50
2022-12-01T14:01:49.798Z,9.57
2022-12-01T14:04:29.532Z,8.82
2022-12-01T14:07:21.057Z,8.32
2022-12-01T14:09:51.673Z,9.07
2022-12-01T14:12:23.457Z,8.60
2022-12-01T14:14:57.009Z,11.33
2022-12-01T14:17:29.583Z,8.43
2022-12-01T14:20:08.358Z,10.55
2022-12-01T14:22:40.200Z,8.75
2022-12-01T14:25:25.674Z,9.18
2022-12-01T14:27:57.745Z,8.07
2022-12-01T14:30:58.998Z,7.32
2022-12-01T14:34:00.052Z,8.85
2022-12-01T14:36:39.235Z,7.60
2022-12-01T14:39:16.061Z,7.45
2022-12-01T14:41:48.105Z,8.80
2022-12-01T14:44:24.237Z,8.25
2022-12-01T14:46:57.807Z,9.43
2022-12-01T14:49:30.758Z,8.93
2022-12-01T14:52:05.641Z,8.82
2022-12-01T14:54:40.346Z,8.30
2022-12-01T14:57:13.662Z,8.52
2022-12-01T14:59:46.234Z,7.72
2022-12-01T15:02:15.063Z,10.13
2022-12-01T15:05:08.423Z,8.27
2022-12-01T15:07:40.555Z,8.48
2022-12-01T15:10:17.801Z,8.52
2022-12-01T15:12:46.290Z,8.55
2022-12-01T15:15:23.981Z,7.47
2022-12-01T15:17:55.655Z,8.95
2022-12-01T15:20:32.979Z,7.47
2022-12-01T15:23:03.598Z,7.25
2022-12-01T15:25:35.641Z,7.53
2022-12-01T15:28:12.318Z,8.15
2022-12-01T15:30:45.142Z,7.97
2022-12-01T15:33:26.731Z,8.55
2022-12-01T15:35:56.612Z,8.18
2022-12-01T15:38:27.936Z,8.35
2022-12-01T15:43:56.092Z,7.43
2022-12-01T15:46:30.503Z,7.78
2022-12-01T15:49:09.277Z,7.78
2022-12-01T15:51:37.534Z,7.35
2022-12-01T15:54:05.935Z,8.70
2022-12-01T15:56:37.432Z,8.95
2022-12-01T15:59:09.886Z,7.38
2022-12-01T16:01:41.968Z,8.07
2022-12-01T16:04:19.482Z,7.43
2022-12-01T16:06:56.692Z,8.18
2022-12-01T16:09:29.735Z,8.23
2022-12-01T16:12:21.040Z,7.93
2022-12-01T16:14:51.962Z,9.77
2022-12-01T16:17:22.665Z,7.88
2022-12-01T16:20:18.696Z,9.85
2022-12-01T16:22:48.658Z,9.70
2022-12-01T16:25:19.378Z,8.65
2022-12-01T16:27:53.154Z,8.90
2022-12-01T16:30:23.464Z,9.70
2022-12-01T16:33:01.165Z,8.73
2022-12-01T16:35:31.515Z,8.65
2022-12-01T16:37:59.956Z,10.23
2022-12-01T16:40:28.185Z,9.73
2022-12-01T16:42:56.482Z,10.20
2022-12-01T16:45:26.804Z,10.55
2022-12-01T16:47:56.327Z,11.20
2022-12-01T16:50:24.689Z,9.98
2022-12-01T16:52:52.719Z,9.90
2022-12-01T16:55:31.189Z,8.65
2022-12-01T16:57:59.238Z,11.13
2022-12-01T17:00:27.718Z,10.68
2022-12-01T17:02:57.965Z,10.45
2022-12-01T17:05:26.426Z,9.60
2022-12-01T17:07:54.847Z,11.25
2022-12-01T17:10:24.087Z,10.27
2022-12-01T17:12:52.213Z,9.55
2022-12-01T17:15:20.380Z,9.90
2022-12-01T17:17:48.603Z,12.30
2022-12-01T17:20:18.515Z,11.25
2022-12-01T17:22:46.527Z,11.13
2022-12-01T17:25:14.716Z,11.00
2022-12-01T17:27:43.987Z,11.25
2022-12-01T17:30:13.298Z,12.43
2022-12-01T17:32:41.331Z,11.07
2022-12-01T17:35:10.373Z,11.75
2022-12-01T17:37:40.140Z,11.90
2022-12-01T17:40:13.816Z,9.05
2022-12-01T17:42:48.579Z,10.07
2022-12-01T17:45:19.228Z,10.55
2022-12-01T17:47:47.373Z,10.75
2022-12-01T17:50:15.859Z,11.60
2022-12-01T17:52:45.367Z,12.25
2022-12-01T17:55:13.455Z,10.80
2022-12-01T17:57:41.525Z,10.05
2022-12-01T18:00:11.044Z,12.43
2022-12-01T18:02:39.230Z,10.45
2022-12-01T18:05:08.246Z,10.40
2022-12-01T18:07:36.407Z,9.77
2022-12-01T18:10:06.802Z,10.00
2022-12-01T18:12:34.828Z,9.68
2022-12-01T18:15:02.993Z,10.55
2022-12-01T18:17:31.962Z,10.43
2022-12-01T18:20:00.255Z,11.65
2022-12-01T18:22:28.486Z,10.23
2022-12-01T18:24:57.649Z,9.85
2022-12-01T18:27:27.348Z,9.13
2022-12-01T18:29:58.506Z,9.93
2022-12-01T18:32:26.672Z,9.98
2022-12-01T18:34:54.876Z,11.32
2022-12-01T18:37:22.938Z,10.63
2022-12-01T18:39:51.940Z,11.30
2022-12-01T18:42:20.011Z,10.55
2022-12-01T18:44:49.794Z,10.32
2022-12-01T18:47:18.186Z,10.77
2022-12-01T18:49:46.298Z,11.80
2022-12-01T18:52:14.266Z,10.93
2022-12-01T18:54:42.495Z,10.57
2022-12-01T18:57:11.898Z,11.23
2022-12-01T18:59:40.079Z,10.48
2022-12-01T19:02:11.530Z,12.05
2022-12-01T19:04:39.631Z,10.63
2022-12-01T19:07:07.699Z,11.43
2022-12-01T19:09:35.796Z,10.93
2022-12-01T19:12:04.065Z,11.02
2022-12-01T19:14:32.217Z,12.88
2022-12-01T19:17:00.611Z,11.20
2022-12-01T19:19:35.746Z,11.38
2022-12-01T19:22:05.879Z,12.18
2022-12-01T19:24:34.128Z,12.65
2022-12-01T19:27:02.295Z,12.50
2022-12-01T19:29:30.519Z,12.35
2022-12-01T19:31:58.864Z,11.57
2022-12-01T19:34:27.022Z,13.98
2022-12-01T19:36:56.864Z,12.30
2022-12-01T19:39:25.252Z,12.80
2022-12-01T19:41:53.732Z,11.13
2022-12-01T19:44:23.307Z,13.48
2022-12-01T19:46:51.646Z,12.93
2022-12-01T19:49:19.857Z,13.63
2022-12-01T19:51:48.291Z,18.00
2022-12-01T19:54:19.547Z,20.25
2022-12-01T19:56:47.662Z,17.33
2022-12-01T19:59:16.093Z,19.75
2022-12-01T20:01:44.275Z,17.63
2022-12-01T20:04:12.720Z,17.10
2022-12-01T20:06:40.854Z,19.98
2022-12-01T20:09:09.712Z,20.05
2022-12-01T20:11:39.369Z,20.63
2022-12-01T20:14:09.286Z,16.27
2022-12-01T20:16:37.981Z,16.40
2022-12-01T20:19:06.803Z,18.40
2022-12-01T20:21:36.655Z,18.00
2022-12-01T20:24:07.577Z,18.30
2022-12-01T20:26:37.481Z,16.25
2022-12-01T20:29:10.849Z,19.73
2022-12-01T20:31:39.307Z,20.65
2022-12-01T20:34:10.688Z,17.05
2022-12-01T20:36:39.141Z,20.13
2022-12-01T20:39:08.713Z,19.00
2022-12-01T20:41:37.176Z,23.85
2022-12-01T20:44:07.455Z,22.02
2022-12-01T20:46:40.950Z,16.27
2022-12-01T20:49:09.538Z,18.40
2022-12-01T20:51:37.682Z,14.95
2022-12-01T20:56:55.834Z,17.52
2022-12-01T20:59:24.100Z,17.33
2022-12-01T21:01:53.719Z,17.45
2022-12-01T21:04:22.074Z,18.58
2022-12-01T21:06:50.967Z,17.63
2022-12-01T21:09:19.115Z,17.35
2022-12-01T21:12:06.384Z,19.13
2022-12-01T21:14:38.225Z,15.80
2022-12-01T21:17:16.353Z,16.80
2022-12-01T21:19:50.218Z,14.98
2022-12-01T21:22:19.269Z,15.45
2022-12-01T21:24:51.935Z,16.92
2022-12-01T21:27:20.266Z,21.48
2022-12-01T21:29:50.012Z,17.90
2022-12-01T21:32:24.472Z,17.13
2022-12-01T21:34:56.495Z,16.90
2022-12-01T21:37:26.223Z,15.88
2022-12-01T21:39:57.256Z,15.98
2022-12-01T21:42:29.178Z,15.77
2022-12-01T21:44:58.114Z,18.08
2022-12-01T21:47:30.098Z,15.82
2022-12-01T21:50:00.742Z,14.25
2022-12-01T21:52:32.860Z,16.23
2022-12-01T21:55:03.504Z,14.32
2022-12-01T21:57:42.854Z,17.65
2022-12-01T22:00:27.251Z,16.60
2022-12-01T22:03:15.805Z,15.35
2022-12-01T22:06:01.114Z,16.33
2022-12-01T22:08:37.162Z,20.27
2022-12-01T22:11:10.998Z,15.82
2022-12-01T22:13:42.915Z,16.13
2022-12-01T22:16:15.291Z,16.00
2022-12-01T22:18:48.258Z,17.60
2022-12-01T22:21:42.573Z,15.73
2022-12-01T22:24:25.797Z,16.65
2022-12-01T22:27:27.283Z,16.38
2022-12-01T22:29:59.585Z,15.38
2022-12-01T22:32:40.355Z,15.93
2022-12-01T22:35:23.720Z,17.38
2022-12-01T22:37:53.613Z,18.17
2022-12-01T22:40:40.681Z,18.48
2022-12-01T22:43:23.874Z,17.63
2022-12-01T22:46:10.792Z,18.17
2022-12-01T22:48:40.733Z,17.58
2022-12-01T22:51:24.353Z,17.35
2022-12-01T22:53:58.886Z,20.92
2022-12-01T22:56:40.445Z,16.83
2022-12-01T22:59:17.203Z,17.35
2022-12-01T23:01:50.202Z,17.35
2022-12-01T23:04:26.366Z,17.90
2022-12-01T23:07:04.671Z,17.98
2022-12-01T23:09:37.075Z,17.77
2022-12-01T23:12:33.427Z,16.98
2022-12-01T23:15:17.632Z,17.02
2022-12-01T23:17:45.751Z,18.63
2022-12-01T23:20:27.836Z,17.65
2022-12-01T23:22:59.723Z,17.05
2022-12-01T23:25:28.707Z,16.77
2022-12-01T23:28:01.230Z,17.30
2022-12-01T23:30:29.395Z,17.15
2022-12-01T23:33:04.726Z,16.00
2022-12-01T23:35:51.954Z,16.83
2022-12-01T23:38:24.014Z,16.77
2022-12-01T23:40:58.149Z,16.00
2022-12-01T23:43:28.292Z,17.25
2022-12-01T23:46:04.088Z,15.77
2022-12-01T23:48:35.044Z,18.08
2022-12-01T23:51:03.605Z,18.75
2022-12-01T23:53:34.135Z,18.33
2022-12-01T23:56:07.245Z,17.73
2022-12-01T23:58:36.188Z,19.48
